Airports Greece Ioannis Kapodistrias International Airport

Ioannis Kapodistrias International Airport (LGKR / CFU)

Facts about Ioannis Kapodistrias International Airport

Name Ioannis Kapodistrias International Airport
City Kerkyra/corfu
Country Greece
ICAO code LGKR
IATA code CFU
Elevation 1.8288 meters (6 feet)

Weather

METAR

Metar data retrieved Friday, 19 July 2024 at 23:55 UTC (9 minutes ago)

LGKR 192320Z 26003KT 9999 FEW030 28/22 Q1008 NOSIG

Live traffic

Navigraph Charts (account required)